sensor_id;sensor_type;location;lat;lon;timestamp;temperature;humidity
1994;DHT22;998;49.906;10.908;2022-09-21T00:00:12;9.80;99.90
1994;DHT22;998;49.906;10.908;2022-09-21T00:02:40;9.80;99.90
1994;DHT22;998;49.906;10.908;2022-09-21T00:05:07;9.90;99.90
1994;DHT22;998;49.906;10.908;2022-09-21T00:07:34;9.80;99.90
1994;DHT22;998;49.906;10.908;2022-09-21T00:10:01;9.80;99.90
1994;DHT22;998;49.906;10.908;2022-09-21T00:12:28;9.90;99.90
1994;DHT22;998;49.906;10.908;2022-09-21T00:14:55;9.90;99.90
1994;DHT22;998;49.906;10.908;2022-09-21T00:17:23;9.80;99.90
1994;DHT22;998;49.906;10.908;2022-09-21T00:19:51;9.90;99.90
1994;DHT22;998;49.906;10.908;2022-09-21T00:22:18;10.00;99.90
1994;DHT22;998;49.906;10.908;2022-09-21T00:24:44;10.00;99.90
1994;DHT22;998;49.906;10.908;2022-09-21T00:27:11;10.00;99.90
1994;DHT22;998;49.906;10.908;2022-09-21T00:29:38;9.90;99.90
1994;DHT22;998;49.906;10.908;2022-09-21T00:32:05;9.70;99.90
1994;DHT22;998;49.906;10.908;2022-09-21T00:34:32;9.80;99.90
1994;DHT22;998;49.906;10.908;2022-09-21T00:37:00;9.70;99.90
1994;DHT22;998;49.906;10.908;2022-09-21T00:39:27;9.60;99.90
1994;DHT22;998;49.906;10.908;2022-09-21T00:41:53;9.70;99.90
1994;DHT22;998;49.906;10.908;2022-09-21T00:44:29;9.60;99.90
1994;DHT22;998;49.906;10.908;2022-09-21T00:47:00;9.60;99.90
1994;DHT22;998;49.906;10.908;2022-09-21T00:49:29;9.60;99.90
1994;DHT22;998;49.906;10.908;2022-09-21T00:51:58;9.60;99.90
1994;DHT22;998;49.906;10.908;2022-09-21T00:54:32;9.40;99.90
1994;DHT22;998;49.906;10.908;2022-09-21T00:57:02;9.30;99.90
1994;DHT22;998;49.906;10.908;2022-09-21T00:59:30;9.40;99.90
1994;DHT22;998;49.906;10.908;2022-09-21T01:01:59;9.40;99.90
1994;DHT22;998;49.906;10.908;2022-09-21T01:04:27;9.40;99.90
1994;DHT22;998;49.906;10.908;2022-09-21T01:06:55;9.40;99.90
1994;DHT22;998;49.906;10.908;2022-09-21T01:09:22;9.40;99.90
1994;DHT22;998;49.906;10.908;2022-09-21T01:11:58;9.20;99.90
1994;DHT22;998;49.906;10.908;2022-09-21T01:14:43;9.00;99.90
1994;DHT22;998;49.906;10.908;2022-09-21T01:17:20;9.00;99.90
1994;DHT22;998;49.906;10.908;2022-09-21T01:20:20;9.10;99.90
1994;DHT22;998;49.906;10.908;2022-09-21T01:25:57;9.40;99.90
1994;DHT22;998;49.906;10.908;2022-09-21T01:28:34;9.20;99.90
1994;DHT22;998;49.906;10.908;2022-09-21T01:31:12;9.20;99.90
1994;DHT22;998;49.906;10.908;2022-09-21T01:33:46;9.20;99.90
1994;DHT22;998;49.906;10.908;2022-09-21T01:36:19;9.30;99.90
1994;DHT22;998;49.906;10.908;2022-09-21T01:38:51;9.20;99.90
1994;DHT22;998;49.906;10.908;2022-09-21T01:41:22;9.10;99.90
1994;DHT22;998;49.906;10.908;2022-09-21T01:43:52;9.20;99.90
1994;DHT22;998;49.906;10.908;2022-09-21T01:46:26;9.30;99.90
1994;DHT22;998;49.906;10.908;2022-09-21T01:48:58;9.20;99.90
1994;DHT22;998;49.906;10.908;2022-09-21T01:51:30;9.10;99.90
1994;DHT22;998;49.906;10.908;2022-09-21T01:54:01;9.20;99.90
1994;DHT22;998;49.906;10.908;2022-09-21T01:56:32;9.20;99.90
1994;DHT22;998;49.906;10.908;2022-09-21T01:59:06;9.40;99.90
1994;DHT22;998;49.906;10.908;2022-09-21T02:01:42;9.40;99.90
1994;DHT22;998;49.906;10.908;2022-09-21T02:04:11;9.30;99.90
1994;DHT22;998;49.906;10.908;2022-09-21T02:06:41;9.40;99.90
1994;DHT22;998;49.906;10.908;2022-09-21T02:09:10;9.20;99.90
1994;DHT22;998;49.906;10.908;2022-09-21T02:11:37;9.20;99.90
1994;DHT22;998;49.906;10.908;2022-09-21T02:14:07;9.20;99.90
1994;DHT22;998;49.906;10.908;2022-09-21T02:16:38;9.30;99.90
1994;DHT22;998;49.906;10.908;2022-09-21T02:19:18;9.30;99.90
1994;DHT22;998;49.906;10.908;2022-09-21T02:21:57;9.30;99.90
1994;DHT22;998;49.906;10.908;2022-09-21T02:24:36;9.30;99.90
1994;DHT22;998;49.906;10.908;2022-09-21T02:27:05;9.10;99.90
1994;DHT22;998;49.906;10.908;2022-09-21T02:29:46;9.10;99.90
1994;DHT22;998;49.906;10.908;2022-09-21T02:32:22;9.10;99.90
1994;DHT22;998;49.906;10.908;2022-09-21T02:34:53;9.10;99.90
1994;DHT22;998;49.906;10.908;2022-09-21T02:37:29;9.00;99.90
1994;DHT22;998;49.906;10.908;2022-09-21T02:40:03;9.20;99.90
1994;DHT22;998;49.906;10.908;2022-09-21T02:42:38;9.10;99.90
1994;DHT22;998;49.906;10.908;2022-09-21T02:45:09;9.20;99.90
1994;DHT22;998;49.906;10.908;2022-09-21T02:47:43;9.30;99.90
1994;DHT22;998;49.906;10.908;2022-09-21T02:50:16;9.30;99.90
1994;DHT22;998;49.906;10.908;2022-09-21T02:52:46;9.30;99.90
1994;DHT22;998;49.906;10.908;2022-09-21T02:55:14;9.30;99.90
1994;DHT22;998;49.906;10.908;2022-09-21T02:57:43;9.30;99.90
1994;DHT22;998;49.906;10.908;2022-09-21T03:00:11;9.20;99.90
1994;DHT22;998;49.906;10.908;2022-09-21T03:02:41;9.30;99.90
1994;DHT22;998;49.906;10.908;2022-09-21T03:05:09;9.20;99.90
1994;DHT22;998;49.906;10.908;2022-09-21T03:07:37;9.30;99.90
1994;DHT22;998;49.906;10.908;2022-09-21T03:10:05;9.20;99.90
1994;DHT22;998;49.906;10.908;2022-09-21T03:12:32;8.90;99.90
1994;DHT22;998;49.906;10.908;2022-09-21T03:14:59;9.10;99.90
1994;DHT22;998;49.906;10.908;2022-09-21T03:17:28;9.10;99.90
1994;DHT22;998;49.906;10.908;2022-09-21T03:19:58;9.00;99.90
1994;DHT22;998;49.906;10.908;2022-09-21T03:22:25;9.00;99.90
1994;DHT22;998;49.906;10.908;2022-09-21T03:24:52;8.90;99.90
1994;DHT22;998;49.906;10.908;2022-09-21T03:27:22;8.90;99.90
1994;DHT22;998;49.906;10.908;2022-09-21T03:29:50;9.10;99.90
1994;DHT22;998;49.906;10.908;2022-09-21T03:32:17;9.20;99.90
1994;DHT22;998;49.906;10.908;2022-09-21T03:34:43;9.20;99.90
1994;DHT22;998;49.906;10.908;2022-09-21T03:37:15;8.90;99.90
1994;DHT22;998;49.906;10.908;2022-09-21T03:39:45;8.80;99.90
1994;DHT22;998;49.906;10.908;2022-09-21T03:42:12;8.80;99.90
1994;DHT22;998;49.906;10.908;2022-09-21T03:44:42;8.90;99.90
1994;DHT22;998;49.906;10.908;2022-09-21T03:47:08;8.80;99.90
1994;DHT22;998;49.906;10.908;2022-09-21T03:49:38;8.80;99.90
1994;DHT22;998;49.906;10.908;2022-09-21T03:52:06;8.80;99.90
1994;DHT22;998;49.906;10.908;2022-09-21T03:54:34;8.80;99.90
1994;DHT22;998;49.906;10.908;2022-09-21T03:57:01;8.80;99.90
1994;DHT22;998;49.906;10.908;2022-09-21T03:59:28;8.70;99.90
1994;DHT22;998;49.906;10.908;2022-09-21T04:01:55;8.90;99.90
1994;DHT22;998;49.906;10.908;2022-09-21T04:04:22;8.90;99.90
1994;DHT22;998;49.906;10.908;2022-09-21T04:06:49;8.70;99.90
1994;DHT22;998;49.906;10.908;2022-09-21T04:09:16;8.60;99.90
1994;DHT22;998;49.906;10.908;2022-09-21T04:11:45;8.50;99.90
1994;DHT22;998;49.906;10.908;2022-09-21T04:14:13;8.60;99.90
1994;DHT22;998;49.906;10.908;2022-09-21T04:16:42;8.60;99.90
1994;DHT22;998;49.906;10.908;2022-09-21T04:19:09;8.60;99.90
1994;DHT22;998;49.906;10.908;2022-09-21T04:21:35;8.60;99.90
1994;DHT22;998;49.906;10.908;2022-09-21T04:24:03;8.60;99.90
1994;DHT22;998;49.906;10.908;2022-09-21T04:26:31;8.50;99.90
1994;DHT22;998;49.906;10.908;2022-09-21T04:29:00;8.40;99.90
1994;DHT22;998;49.906;10.908;2022-09-21T04:31:28;8.40;99.90
1994;DHT22;998;49.906;10.908;2022-09-21T04:33:56;8.30;99.90
1994;DHT22;998;49.906;10.908;2022-09-21T04:36:24;8.40;99.90
1994;DHT22;998;49.906;10.908;2022-09-21T04:38:51;8.40;99.90
1994;DHT22;998;49.906;10.908;2022-09-21T04:41:18;8.50;99.90
1994;DHT22;998;49.906;10.908;2022-09-21T04:43:46;8.60;99.90
1994;DHT22;998;49.906;10.908;2022-09-21T04:46:16;8.40;99.90
1994;DHT22;998;49.906;10.908;2022-09-21T04:48:43;8.40;99.90
1994;DHT22;998;49.906;10.908;2022-09-21T04:51:13;8.40;99.90
1994;DHT22;998;49.906;10.908;2022-09-21T04:53:43;8.30;99.90
1994;DHT22;998;49.906;10.908;2022-09-21T04:56:13;8.30;99.90
1994;DHT22;998;49.906;10.908;2022-09-21T04:58:41;8.20;99.90
1994;DHT22;998;49.906;10.908;2022-09-21T05:01:14;8.30;99.90
1994;DHT22;998;49.906;10.908;2022-09-21T05:03:41;8.10;99.90
1994;DHT22;998;49.906;10.908;2022-09-21T05:06:11;8.00;99.90
1994;DHT22;998;49.906;10.908;2022-09-21T05:08:38;8.30;99.90
1994;DHT22;998;49.906;10.908;2022-09-21T05:11:34;8.30;99.90
1994;DHT22;998;49.906;10.908;2022-09-21T05:14:01;8.40;99.90
1994;DHT22;998;49.906;10.908;2022-09-21T05:16:30;8.20;99.90
1994;DHT22;998;49.906;10.908;2022-09-21T05:18:56;8.10;99.90
1994;DHT22;998;49.906;10.908;2022-09-21T05:21:24;7.90;99.90
1994;DHT22;998;49.906;10.908;2022-09-21T05:23:52;8.00;99.90
1994;DHT22;998;49.906;10.908;2022-09-21T05:26:19;8.00;99.90
1994;DHT22;998;49.906;10.908;2022-09-21T05:28:46;7.90;99.90
1994;DHT22;998;49.906;10.908;2022-09-21T05:31:29;7.90;99.90
1994;DHT22;998;49.906;10.908;2022-09-21T05:34:06;7.80;99.90
1994;DHT22;998;49.906;10.908;2022-09-21T05:36:47;7.50;99.90
1994;DHT22;998;49.906;10.908;2022-09-21T05:39:16;7.60;99.90
1994;DHT22;998;49.906;10.908;2022-09-21T05:41:44;7.80;99.90
1994;DHT22;998;49.906;10.908;2022-09-21T05:44:12;8.00;99.90
1994;DHT22;998;49.906;10.908;2022-09-21T05:46:45;8.00;99.90
1994;DHT22;998;49.906;10.908;2022-09-21T05:49:18;8.10;99.90
1994;DHT22;998;49.906;10.908;2022-09-21T05:51:55;8.10;99.90
1994;DHT22;998;49.906;10.908;2022-09-21T05:54:35;8.00;99.90
1994;DHT22;998;49.906;10.908;2022-09-21T05:57:12;8.10;99.90
1994;DHT22;998;49.906;10.908;2022-09-21T05:59:55;8.00;99.90
1994;DHT22;998;49.906;10.908;2022-09-21T06:02:42;8.00;99.90
1994;DHT22;998;49.906;10.908;2022-09-21T06:05:11;8.30;99.90
1994;DHT22;998;49.906;10.908;2022-09-21T06:07:38;8.30;99.90
1994;DHT22;998;49.906;10.908;2022-09-21T06:10:07;8.40;99.90
1994;DHT22;998;49.906;10.908;2022-09-21T06:12:35;8.30;99.90
1994;DHT22;998;49.906;10.908;2022-09-21T06:15:02;8.20;99.90
1994;DHT22;998;49.906;10.908;2022-09-21T06:17:31;8.30;99.90
1994;DHT22;998;49.906;10.908;2022-09-21T06:20:01;8.20;99.90
1994;DHT22;998;49.906;10.908;2022-09-21T06:22:28;8.10;99.90
1994;DHT22;998;49.906;10.908;2022-09-21T06:24:55;8.10;99.90
1994;DHT22;998;49.906;10.908;2022-09-21T06:27:22;8.10;99.90
1994;DHT22;998;49.906;10.908;2022-09-21T06:29:50;7.90;99.90
1994;DHT22;998;49.906;10.908;2022-09-21T06:32:19;8.10;99.90
1994;DHT22;998;49.906;10.908;2022-09-21T06:34:47;8.20;99.90
1994;DHT22;998;49.906;10.908;2022-09-21T06:37:21;8.10;99.90
1994;DHT22;998;49.906;10.908;2022-09-21T06:39:48;8.00;99.90
1994;DHT22;998;49.906;10.908;2022-09-21T06:42:15;8.00;99.90
1994;DHT22;998;49.906;10.908;2022-09-21T06:44:42;8.10;99.90
1994;DHT22;998;49.906;10.908;2022-09-21T06:47:09;8.00;99.90
1994;DHT22;998;49.906;10.908;2022-09-21T06:49:39;8.00;99.90
1994;DHT22;998;49.906;10.908;2022-09-21T06:52:07;8.00;99.90
1994;DHT22;998;49.906;10.908;2022-09-21T06:54:34;8.10;99.90
1994;DHT22;998;49.906;10.908;2022-09-21T06:57:10;8.10;99.90
1994;DHT22;998;49.906;10.908;2022-09-21T06:59:37;8.20;99.90
1994;DHT22;998;49.906;10.908;2022-09-21T07:02:05;8.10;99.90
1994;DHT22;998;49.906;10.908;2022-09-21T07:04:32;7.90;99.90
1994;DHT22;998;49.906;10.908;2022-09-21T07:07:02;7.90;99.90
1994;DHT22;998;49.906;10.908;2022-09-21T07:09:30;7.80;99.90
1994;DHT22;998;49.906;10.908;2022-09-21T07:11:59;7.80;99.90
1994;DHT22;998;49.906;10.908;2022-09-21T07:14:26;8.10;99.90
1994;DHT22;998;49.906;10.908;2022-09-21T07:16:55;8.30;99.90
1994;DHT22;998;49.906;10.908;2022-09-21T07:19:22;8.20;99.90
1994;DHT22;998;49.906;10.908;2022-09-21T07:21:55;8.00;99.90
1994;DHT22;998;49.906;10.908;2022-09-21T07:24:22;8.00;99.90
1994;DHT22;998;49.906;10.908;2022-09-21T07:26:52;7.90;99.90
1994;DHT22;998;49.906;10.908;2022-09-21T07:29:26;8.10;99.90
1994;DHT22;998;49.906;10.908;2022-09-21T07:31:55;8.20;99.90
1994;DHT22;998;49.906;10.908;2022-09-21T07:34:34;8.30;99.90
1994;DHT22;998;49.906;10.908;2022-09-21T07:37:02;8.30;99.90
1994;DHT22;998;49.906;10.908;2022-09-21T07:39:29;8.40;99.90
1994;DHT22;998;49.906;10.908;2022-09-21T07:41:58;8.40;99.90
1994;DHT22;998;49.906;10.908;2022-09-21T07:44:24;8.40;99.90
1994;DHT22;998;49.906;10.908;2022-09-21T07:46:51;8.40;99.90
1994;DHT22;998;49.906;10.908;2022-09-21T07:49:18;8.60;99.90
1994;DHT22;998;49.906;10.908;2022-09-21T07:51:45;8.70;99.90
1994;DHT22;998;49.906;10.908;2022-09-21T07:54:12;8.60;99.90
1994;DHT22;998;49.906;10.908;2022-09-21T07:56:40;8.60;99.90
1994;DHT22;998;49.906;10.908;2022-09-21T07:59:09;8.60;99.90
1994;DHT22;998;49.906;10.908;2022-09-21T08:01:37;8.70;99.90
1994;DHT22;998;49.906;10.908;2022-09-21T08:04:05;8.70;99.90
1994;DHT22;998;49.906;10.908;2022-09-21T08:06:34;8.70;99.90
1994;DHT22;998;49.906;10.908;2022-09-21T08:09:03;8.70;99.90
1994;DHT22;998;49.906;10.908;2022-09-21T08:11:31;8.80;99.90
1994;DHT22;998;49.906;10.908;2022-09-21T08:14:00;8.80;99.90
1994;DHT22;998;49.906;10.908;2022-09-21T08:16:32;8.90;99.90
1994;DHT22;998;49.906;10.908;2022-09-21T08:18:59;8.90;99.90
1994;DHT22;998;49.906;10.908;2022-09-21T08:21:26;8.80;99.90
1994;DHT22;998;49.906;10.908;2022-09-21T08:23:54;8.70;99.90
1994;DHT22;998;49.906;10.908;2022-09-21T08:26:22;8.80;99.90
1994;DHT22;998;49.906;10.908;2022-09-21T08:28:51;8.80;99.90
1994;DHT22;998;49.906;10.908;2022-09-21T08:31:20;8.70;99.90
1994;DHT22;998;49.906;10.908;2022-09-21T08:33:50;8.80;99.90
1994;DHT22;998;49.906;10.908;2022-09-21T08:36:18;8.60;99.90
1994;DHT22;998;49.906;10.908;2022-09-21T08:38:45;8.70;99.90
1994;DHT22;998;49.906;10.908;2022-09-21T08:41:15;8.90;99.90
1994;DHT22;998;49.906;10.908;2022-09-21T08:43:44;8.90;99.90
1994;DHT22;998;49.906;10.908;2022-09-21T08:46:15;8.90;99.90
1994;DHT22;998;49.906;10.908;2022-09-21T08:48:47;8.70;99.90
1994;DHT22;998;49.906;10.908;2022-09-21T08:51:21;8.70;99.90
1994;DHT22;998;49.906;10.908;2022-09-21T08:53:50;8.60;99.90
1994;DHT22;998;49.906;10.908;2022-09-21T08:56:19;8.80;99.90
1994;DHT22;998;49.906;10.908;2022-09-21T08:58:47;8.80;99.90
1994;DHT22;998;49.906;10.908;2022-09-21T09:01:32;8.80;99.90
1994;DHT22;998;49.906;10.908;2022-09-21T09:04:25;8.80;99.90
1994;DHT22;998;49.906;10.908;2022-09-21T09:07:05;8.80;99.90
1994;DHT22;998;49.906;10.908;2022-09-21T09:10:12;8.90;99.90
1994;DHT22;998;49.906;10.908;2022-09-21T09:13:01;9.30;99.90
1994;DHT22;998;49.906;10.908;2022-09-21T09:15:44;9.40;99.90
1994;DHT22;998;49.906;10.908;2022-09-21T09:18:20;9.50;99.90
1994;DHT22;998;49.906;10.908;2022-09-21T09:20:57;9.50;99.90
1994;DHT22;998;49.906;10.908;2022-09-21T09:23:48;9.50;99.90
1994;DHT22;998;49.906;10.908;2022-09-21T09:26:31;9.60;99.90
1994;DHT22;998;49.906;10.908;2022-09-21T09:29:13;9.60;99.90
1994;DHT22;998;49.906;10.908;2022-09-21T09:32:22;9.60;99.90
1994;DHT22;998;49.906;10.908;2022-09-21T09:34:37;9.70;99.90
1994;DHT22;998;49.906;10.908;2022-09-21T09:37:20;9.90;99.90
1994;DHT22;998;49.906;10.908;2022-09-21T09:40:02;10.00;99.90
1994;DHT22;998;49.906;10.908;2022-09-21T09:42:44;10.10;99.90
1994;DHT22;998;49.906;10.908;2022-09-21T09:45:39;10.20;99.90
1994;DHT22;998;49.906;10.908;2022-09-21T09:48:32;10.30;99.90
1994;DHT22;998;49.906;10.908;2022-09-21T09:51:16;10.30;99.90
1994;DHT22;998;49.906;10.908;2022-09-21T09:53:46;10.40;99.90
1994;DHT22;998;49.906;10.908;2022-09-21T09:56:20;10.30;99.90
1994;DHT22;998;49.906;10.908;2022-09-21T09:58:57;10.40;99.90
1994;DHT22;998;49.906;10.908;2022-09-21T10:01:42;10.30;99.90
1994;DHT22;998;49.906;10.908;2022-09-21T10:04:14;10.40;99.90
1994;DHT22;998;49.906;10.908;2022-09-21T10:06:44;10.50;99.90
1994;DHT22;998;49.906;10.908;2022-09-21T10:09:24;10.50;99.90
1994;DHT22;998;49.906;10.908;2022-09-21T10:12:14;10.60;99.90
1994;DHT22;998;49.906;10.908;2022-09-21T10:14:48;10.60;99.90
1994;DHT22;998;49.906;10.908;2022-09-21T10:17:23;10.60;99.90
1994;DHT22;998;49.906;10.908;2022-09-21T10:20:00;10.80;99.90
1994;DHT22;998;49.906;10.908;2022-09-21T10:22:28;10.90;99.90
1994;DHT22;998;49.906;10.908;2022-09-21T10:24:56;11.00;99.90
1994;DHT22;998;49.906;10.908;2022-09-21T10:27:29;11.10;99.90
1994;DHT22;998;49.906;10.908;2022-09-21T10:29:59;11.30;99.90
1994;DHT22;998;49.906;10.908;2022-09-21T10:32:28;11.40;99.90
1994;DHT22;998;49.906;10.908;2022-09-21T10:35:16;11.40;99.90
1994;DHT22;998;49.906;10.908;2022-09-21T10:37:46;11.50;99.90
1994;DHT22;998;49.906;10.908;2022-09-21T10:40:26;11.50;99.90
1994;DHT22;998;49.906;10.908;2022-09-21T10:43:00;11.50;99.90
1994;DHT22;998;49.906;10.908;2022-09-21T10:45:28;11.60;99.90
1994;DHT22;998;49.906;10.908;2022-09-21T10:47:57;11.80;99.90
1994;DHT22;998;49.906;10.908;2022-09-21T10:50:33;11.80;99.90
1994;DHT22;998;49.906;10.908;2022-09-21T10:53:11;11.90;99.90
1994;DHT22;998;49.906;10.908;2022-09-21T10:55:52;12.00;99.90
1994;DHT22;998;49.906;10.908;2022-09-21T10:58:25;12.10;99.90
1994;DHT22;998;49.906;10.908;2022-09-21T11:00:55;12.40;99.90
1994;DHT22;998;49.906;10.908;2022-09-21T11:04:01;12.70;99.90
1994;DHT22;998;49.906;10.908;2022-09-21T11:06:39;13.10;99.90
1994;DHT22;998;49.906;10.908;2022-09-21T11:09:13;14.00;99.90
1994;DHT22;998;49.906;10.908;2022-09-21T11:11:48;14.50;99.90
1994;DHT22;998;49.906;10.908;2022-09-21T11:14:29;15.20;99.90
1994;DHT22;998;49.906;10.908;2022-09-21T11:17:06;15.80;99.90
1994;DHT22;998;49.906;10.908;2022-09-21T11:19:48;16.70;99.90
1994;DHT22;998;49.906;10.908;2022-09-21T11:22:23;17.50;99.90
1994;DHT22;998;49.906;10.908;2022-09-21T11:24:59;18.10;99.90
1994;DHT22;998;49.906;10.908;2022-09-21T11:27:31;18.50;99.90
1994;DHT22;998;49.906;10.908;2022-09-21T11:30:11;18.80;99.90
1994;DHT22;998;49.906;10.908;2022-09-21T11:32:59;19.10;99.90
1994;DHT22;998;49.906;10.908;2022-09-21T11:35:50;19.60;99.90
1994;DHT22;998;49.906;10.908;2022-09-21T11:38:35;20.00;99.90
1994;DHT22;998;49.906;10.908;2022-09-21T11:44:39;20.40;99.90
1994;DHT22;998;49.906;10.908;2022-09-21T11:47:57;20.60;99.90
1994;DHT22;998;49.906;10.908;2022-09-21T11:54:21;21.20;99.90
1994;DHT22;998;49.906;10.908;2022-09-21T11:56:59;21.20;99.90
1994;DHT22;998;49.906;10.908;2022-09-21T12:00:06;21.30;99.90
1994;DHT22;998;49.906;10.908;2022-09-21T12:05:54;21.60;99.90
1994;DHT22;998;49.906;10.908;2022-09-21T12:11:35;21.90;99.90
1994;DHT22;998;49.906;10.908;2022-09-21T12:14:12;22.00;99.90
1994;DHT22;998;49.906;10.908;2022-09-21T12:16:45;22.00;99.90
1994;DHT22;998;49.906;10.908;2022-09-21T12:19:50;22.20;98.60
1994;DHT22;998;49.906;10.908;2022-09-21T12:22:34;22.20;97.90
1994;DHT22;998;49.906;10.908;2022-09-21T12:25:13;22.60;97.60
1994;DHT22;998;49.906;10.908;2022-09-21T12:28:11;22.90;99.00
1994;DHT22;998;49.906;10.908;2022-09-21T12:30:43;22.70;94.90
1994;DHT22;998;49.906;10.908;2022-09-21T12:33:16;22.60;94.20
1994;DHT22;998;49.906;10.908;2022-09-21T12:35:49;22.70;94.00
1994;DHT22;998;49.906;10.908;2022-09-21T12:38:22;22.80;91.50
1994;DHT22;998;49.906;10.908;2022-09-21T12:40:54;22.80;91.40
1994;DHT22;998;49.906;10.908;2022-09-21T12:43:31;22.50;90.00
1994;DHT22;998;49.906;10.908;2022-09-21T12:46:03;22.60;91.20
1994;DHT22;998;49.906;10.908;2022-09-21T12:48:34;22.30;90.80
1994;DHT22;998;49.906;10.908;2022-09-21T12:51:12;22.10;88.60
1994;DHT22;998;49.906;10.908;2022-09-21T12:53:43;22.30;91.50
1994;DHT22;998;49.906;10.908;2022-09-21T12:56:14;22.50;84.30
1994;DHT22;998;49.906;10.908;2022-09-21T12:58:52;22.40;84.30
1994;DHT22;998;49.906;10.908;2022-09-21T13:01:32;22.30;87.60
1994;DHT22;998;49.906;10.908;2022-09-21T13:04:11;22.40;88.30
1994;DHT22;998;49.906;10.908;2022-09-21T13:07:10;22.40;89.10
1994;DHT22;998;49.906;10.908;2022-09-21T13:09:44;22.30;87.60
1994;DHT22;998;49.906;10.908;2022-09-21T13:12:16;22.10;87.30
1994;DHT22;998;49.906;10.908;2022-09-21T13:14:46;22.30;87.60
1994;DHT22;998;49.906;10.908;2022-09-21T13:17:21;22.30;88.20
1994;DHT22;998;49.906;10.908;2022-09-21T13:19:56;22.50;89.80
1994;DHT22;998;49.906;10.908;2022-09-21T13:22:29;22.40;89.30
1994;DHT22;998;49.906;10.908;2022-09-21T13:25:00;22.50;86.50
1994;DHT22;998;49.906;10.908;2022-09-21T13:27:55;22.00;84.90
1994;DHT22;998;49.906;10.908;2022-09-21T13:30:31;21.90;85.50
1994;DHT22;998;49.906;10.908;2022-09-21T13:33:01;22.00;85.80
1994;DHT22;998;49.906;10.908;2022-09-21T13:35:51;22.10;85.60
1994;DHT22;998;49.906;10.908;2022-09-21T13:38:27;22.30;87.50
1994;DHT22;998;49.906;10.908;2022-09-21T13:40:59;22.10;86.20
1994;DHT22;998;49.906;10.908;2022-09-21T13:44:02;22.10;82.80
1994;DHT22;998;49.906;10.908;2022-09-21T13:47:03;22.10;85.50
1994;DHT22;998;49.906;10.908;2022-09-21T13:49:43;22.10;85.60
1994;DHT22;998;49.906;10.908;2022-09-21T13:52:23;22.00;83.60
1994;DHT22;998;49.906;10.908;2022-09-21T13:54:54;22.00;83.70
1994;DHT22;998;49.906;10.908;2022-09-21T13:57:25;22.20;85.50
1994;DHT22;998;49.906;10.908;2022-09-21T14:00:23;22.00;86.20
1994;DHT22;998;49.906;10.908;2022-09-21T14:02:57;21.80;86.30
1994;DHT22;998;49.906;10.908;2022-09-21T14:05:30;22.00;84.10
1994;DHT22;998;49.906;10.908;2022-09-21T14:08:23;22.00;84.40
1994;DHT22;998;49.906;10.908;2022-09-21T14:11:08;22.00;85.80
1994;DHT22;998;49.906;10.908;2022-09-21T14:13:45;21.80;83.70
1994;DHT22;998;49.906;10.908;2022-09-21T14:16:50;21.80;84.50
1994;DHT22;998;49.906;10.908;2022-09-21T14:22:42;22.00;85.00
1994;DHT22;998;49.906;10.908;2022-09-21T14:25:47;21.90;84.10
1994;DHT22;998;49.906;10.908;2022-09-21T14:28:34;21.60;82.50
1994;DHT22;998;49.906;10.908;2022-09-21T14:31:14;21.50;86.60
1994;DHT22;998;49.906;10.908;2022-09-21T14:33:44;21.60;83.20
1994;DHT22;998;49.906;10.908;2022-09-21T14:36:18;21.60;79.40
1994;DHT22;998;49.906;10.908;2022-09-21T14:38:56;21.70;82.90
1994;DHT22;998;49.906;10.908;2022-09-21T14:41:35;21.40;81.10
1994;DHT22;998;49.906;10.908;2022-09-21T14:44:04;21.40;80.00
1994;DHT22;998;49.906;10.908;2022-09-21T14:47:06;21.40;81.60
1994;DHT22;998;49.906;10.908;2022-09-21T14:49:46;21.50;84.10
1994;DHT22;998;49.906;10.908;2022-09-21T14:52:26;21.70;82.60
1994;DHT22;998;49.906;10.908;2022-09-21T14:55:06;21.50;80.30
1994;DHT22;998;49.906;10.908;2022-09-21T15:00:38;21.30;81.20
1994;DHT22;998;49.906;10.908;2022-09-21T15:03:39;21.10;82.00
1994;DHT22;998;49.906;10.908;2022-09-21T15:06:17;21.20;80.90
1994;DHT22;998;49.906;10.908;2022-09-21T15:09:16;20.90;79.60
1994;DHT22;998;49.906;10.908;2022-09-21T15:12:11;20.90;80.50
1994;DHT22;998;49.906;10.908;2022-09-21T15:14:41;21.00;82.20
1994;DHT22;998;49.906;10.908;2022-09-21T15:17:29;21.00;77.00
1994;DHT22;998;49.906;10.908;2022-09-21T15:19:57;20.90;79.20
1994;DHT22;998;49.906;10.908;2022-09-21T15:22:25;20.90;81.00
1994;DHT22;998;49.906;10.908;2022-09-21T15:24:54;20.80;78.70
1994;DHT22;998;49.906;10.908;2022-09-21T15:27:23;20.60;80.20
1994;DHT22;998;49.906;10.908;2022-09-21T15:29:53;20.30;81.70
1994;DHT22;998;49.906;10.908;2022-09-21T15:32:26;20.40;81.30
1994;DHT22;998;49.906;10.908;2022-09-21T15:35:03;20.30;81.10
1994;DHT22;998;49.906;10.908;2022-09-21T15:37:34;20.10;80.50
1994;DHT22;998;49.906;10.908;2022-09-21T15:40:04;20.30;78.30
1994;DHT22;998;49.906;10.908;2022-09-21T15:42:34;20.30;78.00
1994;DHT22;998;49.906;10.908;2022-09-21T15:45:14;20.10;78.20
1994;DHT22;998;49.906;10.908;2022-09-21T15:47:41;19.90;79.00
1994;DHT22;998;49.906;10.908;2022-09-21T15:50:15;19.90;80.20
1994;DHT22;998;49.906;10.908;2022-09-21T15:52:47;19.60;78.60
1994;DHT22;998;49.906;10.908;2022-09-21T15:55:17;19.60;80.90
1994;DHT22;998;49.906;10.908;2022-09-21T15:57:46;19.50;80.10
1994;DHT22;998;49.906;10.908;2022-09-21T16:00:20;19.70;80.60
1994;DHT22;998;49.906;10.908;2022-09-21T16:03:20;19.60;76.50
1994;DHT22;998;49.906;10.908;2022-09-21T16:05:51;19.40;79.60
1994;DHT22;998;49.906;10.908;2022-09-21T16:08:31;19.40;80.10
1994;DHT22;998;49.906;10.908;2022-09-21T16:11:17;19.40;79.40
1994;DHT22;998;49.906;10.908;2022-09-21T16:13:56;19.40;81.40
1994;DHT22;998;49.906;10.908;2022-09-21T16:17:04;19.60;80.50
1994;DHT22;998;49.906;10.908;2022-09-21T16:19:39;19.40;80.60
1994;DHT22;998;49.906;10.908;2022-09-21T16:22:10;19.30;78.10
1994;DHT22;998;49.906;10.908;2022-09-21T16:24:43;19.20;78.00
1994;DHT22;998;49.906;10.908;2022-09-21T16:27:16;19.10;77.20
1994;DHT22;998;49.906;10.908;2022-09-21T16:29:45;19.00;75.70
1994;DHT22;998;49.906;10.908;2022-09-21T16:32:27;19.10;77.00
1994;DHT22;998;49.906;10.908;2022-09-21T16:35:21;19.00;79.00
1994;DHT22;998;49.906;10.908;2022-09-21T16:37:52;18.90;80.00
1994;DHT22;998;49.906;10.908;2022-09-21T16:40:23;18.90;80.80
1994;DHT22;998;49.906;10.908;2022-09-21T16:42:50;18.80;80.60
1994;DHT22;998;49.906;10.908;2022-09-21T16:45:23;18.70;80.60
1994;DHT22;998;49.906;10.908;2022-09-21T16:47:50;18.40;78.30
1994;DHT22;998;49.906;10.908;2022-09-21T16:50:18;18.50;80.70
1994;DHT22;998;49.906;10.908;2022-09-21T16:52:45;18.20;79.30
1994;DHT22;998;49.906;10.908;2022-09-21T16:55:14;18.10;79.10
1994;DHT22;998;49.906;10.908;2022-09-21T16:57:41;18.10;81.10
1994;DHT22;998;49.906;10.908;2022-09-21T17:00:10;18.00;83.90
1994;DHT22;998;49.906;10.908;2022-09-21T17:02:37;17.90;85.10
1994;DHT22;998;49.906;10.908;2022-09-21T17:05:10;17.70;87.70
1994;DHT22;998;49.906;10.908;2022-09-21T17:07:37;17.60;89.80
1994;DHT22;998;49.906;10.908;2022-09-21T17:10:10;17.60;90.80
1994;DHT22;998;49.906;10.908;2022-09-21T17:12:39;17.40;91.70
1994;DHT22;998;49.906;10.908;2022-09-21T17:15:07;17.20;92.50
1994;DHT22;998;49.906;10.908;2022-09-21T17:17:35;17.30;92.70